createdAt,value
2022-07-29T00:07:53.474Z,19.1
2022-07-29T00:19:53.677Z,19.2
2022-07-29T00:31:53.537Z,18.9
2022-07-29T00:43:53.461Z,18.9
2022-07-29T00:55:53.409Z,18.7
2022-07-29T01:07:53.452Z,18.5
2022-07-29T01:19:53.482Z,18.4
2022-07-29T01:31:59.627Z,18.3
2022-07-29T01:43:53.454Z,18.1
2022-07-29T01:55:53.417Z,18.0
2022-07-29T02:07:53.441Z,17.9
2022-07-29T02:19:53.421Z,17.7
2022-07-29T02:31:53.471Z,17.2
2022-07-29T02:43:53.464Z,17.1
2022-07-29T02:55:53.467Z,16.7
2022-07-29T03:07:53.482Z,16.4
2022-07-29T03:19:53.471Z,16.4
2022-07-29T03:31:53.443Z,16.2
2022-07-29T03:43:53.461Z,16.3
2022-07-29T03:55:53.512Z,16.2
2022-07-29T04:07:53.469Z,15.9
2022-07-29T04:19:53.447Z,16.1
2022-07-29T04:31:53.594Z,16.5
2022-07-29T04:43:53.466Z,16.7
2022-07-29T04:55:53.468Z,16.9
2022-07-29T05:07:53.456Z,17.5
2022-07-29T05:19:53.487Z,17.9
2022-07-29T05:31:53.491Z,18.1
2022-07-29T05:43:53.533Z,17.9
2022-07-29T05:55:53.487Z,18.3
2022-07-29T06:07:53.435Z,20.3
2022-07-29T06:19:53.466Z,19.8
2022-07-29T06:31:53.465Z,21.1
2022-07-29T06:43:55.225Z,21.2
2022-07-29T06:55:53.903Z,19.4
2022-07-29T07:07:53.489Z,20.1
2022-07-29T07:19:53.479Z,20.1
2022-07-29T07:31:57.518Z,21.1
2022-07-29T07:43:53.461Z,22.0
2022-07-29T07:56:09.845Z,22.1
2022-07-29T08:07:53.435Z,20.4
2022-07-29T08:19:53.645Z,20.6
2022-07-29T08:31:53.642Z,21.5
2022-07-29T08:43:53.467Z,21.4
2022-07-29T08:55:53.499Z,22.1
2022-07-29T09:07:53.462Z,22.2
2022-07-29T09:19:53.736Z,23.2
2022-07-29T09:31:53.693Z,23.1
2022-07-29T09:43:53.825Z,23.4
2022-07-29T09:55:53.463Z,22.8
2022-07-29T10:07:54.063Z,23.2
2022-07-29T10:19:53.472Z,23.3
2022-07-29T10:31:53.775Z,24.0
2022-07-29T10:43:53.475Z,24.5
2022-07-29T10:55:53.692Z,24.6
2022-07-29T11:07:53.466Z,24.9
2022-07-29T11:19:53.485Z,24.3
2022-07-29T11:31:53.462Z,25.0
2022-07-29T11:43:53.537Z,25.0
2022-07-29T11:55:53.466Z,25.1
2022-07-29T12:07:53.450Z,25.7
2022-07-29T12:19:53.656Z,24.9
2022-07-29T12:31:53.517Z,25.1
2022-07-29T12:43:53.446Z,25.3
2022-07-29T12:55:53.483Z,25.1
2022-07-29T13:07:57.076Z,26.4
2022-07-29T13:19:53.475Z,26.2
2022-07-29T13:31:53.462Z,26.3
2022-07-29T13:43:53.460Z,26.2
2022-07-29T13:55:53.466Z,26.2
2022-07-29T14:07:53.467Z,25.8
2022-07-29T14:19:53.484Z,25.9
2022-07-29T14:31:53.541Z,26.0
2022-07-29T14:43:53.475Z,26.0
2022-07-29T14:55:53.832Z,25.4
2022-07-29T15:07:53.476Z,25.5
2022-07-29T15:19:53.446Z,25.5
2022-07-29T15:31:53.543Z,25.8
2022-07-29T15:43:53.650Z,25.7
2022-07-29T15:55:53.506Z,25.4
2022-07-29T16:07:53.460Z,25.0
2022-07-29T16:19:53.476Z,25.0
2022-07-29T16:31:53.503Z,24.5
2022-07-29T16:43:53.448Z,24.4
2022-07-29T16:55:54.164Z,24.6
2022-07-29T17:07:53.456Z,24.0
2022-07-29T17:19:53.529Z,23.4
2022-07-29T17:31:53.504Z,23.2
2022-07-29T17:43:53.475Z,22.8
2022-07-29T17:55:53.462Z,22.3
2022-07-29T18:07:53.457Z,22.1
2022-07-29T18:19:53.477Z,22.0
2022-07-29T18:31:53.452Z,21.9
2022-07-29T18:43:53.459Z,21.8
2022-07-29T18:55:56.326Z,21.6
2022-07-29T19:07:53.445Z,21.5
2022-07-29T19:19:53.475Z,21.3
2022-07-29T19:31:53.461Z,21.0
2022-07-29T19:43:53.463Z,20.8
2022-07-29T19:55:53.577Z,20.6
2022-07-29T20:07:53.461Z,20.3
2022-07-29T20:19:53.457Z,20.1
2022-07-29T20:31:56.240Z,19.9
2022-07-29T20:43:53.446Z,19.8
2022-07-29T20:55:53.449Z,19.7
2022-07-29T21:07:57.803Z,19.7
2022-07-29T21:19:53.468Z,19.6
2022-07-29T21:31:53.475Z,19.5
2022-07-29T21:43:53.467Z,19.3
2022-07-29T21:55:53.458Z,19.0
2022-07-29T22:07:54.541Z,18.6
2022-07-29T22:19:53.441Z,18.4
2022-07-29T22:31:53.459Z,18.2
2022-07-29T22:43:53.504Z,18.4
2022-07-29T22:55:53.461Z,18.4
2022-07-29T23:07:53.456Z,18.2
2022-07-29T23:19:53.467Z,18.0
2022-07-29T23:31:53.448Z,18.0
2022-07-29T23:43:53.460Z,18.0
2022-07-29T23:55:53.658Z,17.9
